createdAt,value
2018-12-05T00:01:26.347Z,89.48
2018-12-05T00:03:53.810Z,89.28
2018-12-05T00:06:21.257Z,89.27
2018-12-05T00:08:50.522Z,89.22
2018-12-05T00:11:18.328Z,89.37
2018-12-05T00:13:45.792Z,89.36
2018-12-05T00:16:13.213Z,89.00
2018-12-05T00:18:40.704Z,88.84
2018-12-05T00:21:08.162Z,89.01
2018-12-05T00:23:35.577Z,88.96
2018-12-05T00:26:03.064Z,89.04
2018-12-05T00:28:30.496Z,89.11
2018-12-05T00:30:57.911Z,89.33
2018-12-05T00:33:25.436Z,89.11
2018-12-05T00:35:52.862Z,89.31
2018-12-05T00:38:20.360Z,89.17
2018-12-05T00:52:11.601Z,89.16
2018-12-05T00:54:39.109Z,89.47
2018-12-05T00:57:06.531Z,89.51
2018-12-05T00:59:33.937Z,89.04
2018-12-05T01:02:01.392Z,89.13
2018-12-05T01:04:28.812Z,89.16
2018-12-05T01:06:56.275Z,89.62
2018-12-05T01:09:23.708Z,89.93
2018-12-05T01:11:51.178Z,89.82
2018-12-05T01:14:18.641Z,89.70
2018-12-05T01:16:46.092Z,89.72
2018-12-05T01:19:13.518Z,89.66
2018-12-05T01:21:41.020Z,90.16
2018-12-05T01:24:08.433Z,89.98
2018-12-05T01:26:35.943Z,90.40
2018-12-05T01:29:03.369Z,89.84
2018-12-05T01:31:30.780Z,90.15
2018-12-05T01:33:58.217Z,89.98
2018-12-05T01:36:25.651Z,90.05
2018-12-05T01:38:53.119Z,90.06
2018-12-05T01:41:20.672Z,90.00
2018-12-05T01:43:48.118Z,90.14
2018-12-05T01:46:15.561Z,90.13
2018-12-05T01:48:43.044Z,90.08
2018-12-05T01:51:10.486Z,89.99
2018-12-05T01:53:37.970Z,90.02
2018-12-05T01:56:05.510Z,89.55
2018-12-05T01:58:32.935Z,89.70
2018-12-05T02:01:00.742Z,90.21
2018-12-05T02:03:28.184Z,89.98
2018-12-05T02:05:55.606Z,90.11
2018-12-05T02:08:23.120Z,90.28
2018-12-05T02:10:50.533Z,89.84
2018-12-05T02:13:17.962Z,89.86
2018-12-05T02:15:45.493Z,89.86
2018-12-05T02:18:12.939Z,89.67
2018-12-05T02:20:40.345Z,89.53
2018-12-05T02:23:07.841Z,89.64
2018-12-05T02:25:35.258Z,89.49
2018-12-05T02:28:02.692Z,89.80
2018-12-05T02:30:30.211Z,90.06
2018-12-05T02:32:57.638Z,90.09
2018-12-05T02:35:25.073Z,90.13
2018-12-05T02:37:52.597Z,90.22
2018-12-05T02:40:20.057Z,90.33
2018-12-05T02:42:48.198Z,90.30
2018-12-05T02:45:15.665Z,90.07
2018-12-05T02:47:43.112Z,90.13
2018-12-05T02:50:10.697Z,90.34
2018-12-05T02:52:38.161Z,90.40
2018-12-05T02:55:05.702Z,90.53
2018-12-05T02:57:33.165Z,89.93
2018-12-05T03:00:00.597Z,89.82
2018-12-05T03:02:28.075Z,90.39
2018-12-05T03:04:55.509Z,90.10
2018-12-05T03:07:22.993Z,90.04
2018-12-05T03:09:50.454Z,89.83
2018-12-05T03:12:17.894Z,90.13
2018-12-05T03:14:45.371Z,90.28
2018-12-05T03:17:12.826Z,90.19
2018-12-05T03:19:40.271Z,90.49
2018-12-05T03:22:07.715Z,90.33
2018-12-05T03:24:35.130Z,90.17
2018-12-05T03:27:02.639Z,90.48
2018-12-05T03:29:30.111Z,89.97
2018-12-05T03:31:57.537Z,90.39
2018-12-05T03:34:25.026Z,90.72
2018-12-05T03:36:53.416Z,90.79
2018-12-05T03:39:20.974Z,90.40
2018-12-05T03:41:48.407Z,90.43
2018-12-05T03:44:15.841Z,91.12
2018-12-05T03:46:43.333Z,91.03
2018-12-05T03:49:10.780Z,91.34
2018-12-05T03:51:38.203Z,90.67
2018-12-05T03:54:05.708Z,90.67
2018-12-05T03:56:33.254Z,90.89
2018-12-05T03:59:00.720Z,90.54
2018-12-05T04:01:28.169Z,90.57
2018-12-05T04:03:55.573Z,90.57
2018-12-05T04:06:23.091Z,91.01
2018-12-05T04:08:50.557Z,90.50
2018-12-05T04:11:18.009Z,90.47
2018-12-05T04:13:45.463Z,90.64
2018-12-05T04:16:12.922Z,90.66
2018-12-05T04:18:40.411Z,90.80
2018-12-05T04:21:07.836Z,91.23
2018-12-05T04:23:35.265Z,91.25
2018-12-05T04:26:02.681Z,91.26
2018-12-05T04:28:30.116Z,91.23
2018-12-05T04:30:57.547Z,90.99
2018-12-05T04:33:25.123Z,90.70
2018-12-05T04:35:52.580Z,91.30
2018-12-05T04:38:20.018Z,90.75
2018-12-05T04:40:47.469Z,90.93
2018-12-05T04:43:14.882Z,90.75
2018-12-05T04:45:42.406Z,91.19
2018-12-05T04:48:09.962Z,90.47
2018-12-05T04:50:37.418Z,91.00
2018-12-05T04:53:04.992Z,91.46
2018-12-05T04:55:32.829Z,91.32
2018-12-05T04:58:00.241Z,90.76
2018-12-05T05:00:27.791Z,90.97
2018-12-05T05:02:55.325Z,91.11
2018-12-05T05:05:22.773Z,91.10
2018-12-05T05:07:50.265Z,91.15
2018-12-05T05:10:17.789Z,91.30
2018-12-05T05:12:45.220Z,91.48
2018-12-05T05:15:12.724Z,91.49
2018-12-05T05:17:40.254Z,91.72
2018-12-05T05:20:07.837Z,91.78
2018-12-05T05:22:35.260Z,91.40
2018-12-05T05:25:02.772Z,91.60
2018-12-05T05:27:30.229Z,91.66
2018-12-05T05:29:57.660Z,91.43
2018-12-05T05:32:25.087Z,91.69
2018-12-05T05:34:52.658Z,91.43
2018-12-05T05:37:20.121Z,91.63
2018-12-05T05:39:47.674Z,92.05
2018-12-05T05:42:15.252Z,91.43
2018-12-05T05:44:42.687Z,91.75
2018-12-05T05:47:10.110Z,91.65
2018-12-05T05:49:37.532Z,91.85
2018-12-05T05:52:05.078Z,91.78
2018-12-05T05:54:32.633Z,91.19
2018-12-05T05:57:00.074Z,91.42
2018-12-05T05:59:27.540Z,91.42
2018-12-05T06:01:55.104Z,91.25
2018-12-05T06:04:22.537Z,91.09
2018-12-05T06:06:50.005Z,90.71
2018-12-05T06:09:17.457Z,91.04
2018-12-05T06:11:44.906Z,91.20
2018-12-05T06:14:12.392Z,91.27
2018-12-05T06:16:39.838Z,91.08
2018-12-05T06:19:07.246Z,91.14
2018-12-05T06:21:34.770Z,91.08
2018-12-05T06:24:02.309Z,90.75
2018-12-05T06:26:29.969Z,90.82
2018-12-05T06:28:57.385Z,90.75
2018-12-05T06:31:24.886Z,90.83
2018-12-05T06:33:52.338Z,90.78
2018-12-05T06:36:19.781Z,91.09
2018-12-05T06:38:47.212Z,90.71
2018-12-05T06:41:14.735Z,91.14
2018-12-05T06:43:42.163Z,90.70
2018-12-05T06:46:09.621Z,90.86
2018-12-05T06:48:37.344Z,90.69
2018-12-05T06:51:04.839Z,91.26
2018-12-05T06:53:32.328Z,91.16
2018-12-05T06:55:59.866Z,91.19
2018-12-05T06:58:27.432Z,91.47
2018-12-05T07:00:54.888Z,91.56
2018-12-05T07:03:22.318Z,91.43
2018-12-05T07:05:49.737Z,91.15
2018-12-05T07:08:17.257Z,91.24
2018-12-05T07:10:44.731Z,91.39
2018-12-05T07:13:12.153Z,91.85
2018-12-05T07:15:39.590Z,91.82
2018-12-05T07:18:07.100Z,91.66
2018-12-05T07:20:34.535Z,91.79
2018-12-05T07:23:02.008Z,91.58
2018-12-05T07:25:29.439Z,91.83
2018-12-05T07:27:56.932Z,91.62
2018-12-05T07:30:29.425Z,91.46
2018-12-05T07:32:53.808Z,91.06
2018-12-05T07:35:21.238Z,91.26
2018-12-05T07:37:48.686Z,91.33
2018-12-05T07:40:16.132Z,91.05
2018-12-05T07:42:43.587Z,91.41
2018-12-05T07:45:11.225Z,91.60
2018-12-05T07:47:38.651Z,91.09
2018-12-05T07:50:06.182Z,90.97
2018-12-05T07:52:33.598Z,91.15
2018-12-05T07:55:02.363Z,90.71
2018-12-05T07:57:30.152Z,90.81
2018-12-05T07:59:57.648Z,91.04
2018-12-05T08:02:25.106Z,90.82
2018-12-05T08:04:52.572Z,90.83
2018-12-05T08:07:20.029Z,90.87
2018-12-05T08:09:47.488Z,90.97
2018-12-05T08:12:14.915Z,90.67
2018-12-05T08:14:42.392Z,91.07
2018-12-05T08:17:09.856Z,91.07
2018-12-05T08:19:37.313Z,90.87
2018-12-05T08:22:04.764Z,90.65
2018-12-05T08:24:32.220Z,90.92
2018-12-05T08:26:59.685Z,90.97
2018-12-05T08:29:27.142Z,90.88
2018-12-05T08:31:54.554Z,91.19
2018-12-05T08:34:22.041Z,90.95
2018-12-05T08:36:49.508Z,90.87
2018-12-05T08:39:16.947Z,90.56
2018-12-05T08:41:44.429Z,90.87
2018-12-05T08:44:11.905Z,90.74
2018-12-05T08:46:39.350Z,90.50
2018-12-05T08:49:06.821Z,90.39
2018-12-05T08:51:34.328Z,90.47
2018-12-05T08:54:01.800Z,90.05
2018-12-05T08:56:29.216Z,89.62
2018-12-05T08:58:56.661Z,89.75
2018-12-05T09:01:24.068Z,89.59
2018-12-05T09:03:51.494Z,89.87
2018-12-05T09:06:18.974Z,89.89
2018-12-05T09:08:46.434Z,89.82
2018-12-05T09:11:13.880Z,89.81
2018-12-05T09:13:41.356Z,90.30
2018-12-05T09:16:08.789Z,90.35
2018-12-05T09:18:36.226Z,90.19
2018-12-05T09:21:03.708Z,90.13
2018-12-05T09:23:31.135Z,90.06
2018-12-05T09:25:58.652Z,89.89
2018-12-05T09:28:26.087Z,89.85
2018-12-05T09:30:53.504Z,88.78
2018-12-05T09:33:21.021Z,89.60
2018-12-05T09:35:48.557Z,89.60
2018-12-05T09:38:15.993Z,89.23
2018-12-05T09:40:43.480Z,89.39
2018-12-05T09:43:10.934Z,89.34
2018-12-05T09:45:38.503Z,89.76
2018-12-05T09:48:06.029Z,89.41
2018-12-05T09:50:33.513Z,89.78
2018-12-05T09:53:00.923Z,89.20
2018-12-05T09:55:28.490Z,89.14
2018-12-05T09:57:55.983Z,89.01
2018-12-05T10:00:23.452Z,89.22
2018-12-05T10:02:50.909Z,89.15
2018-12-05T10:05:18.333Z,89.21
2018-12-05T10:07:45.769Z,89.10
2018-12-05T10:10:13.208Z,89.31
2018-12-05T10:12:40.626Z,88.94
2018-12-05T10:15:08.183Z,89.09
2018-12-05T10:17:35.841Z,89.23
2018-12-05T10:20:03.524Z,89.46
2018-12-05T10:22:30.961Z,89.11
2018-12-05T10:24:58.434Z,89.38
2018-12-05T10:27:25.946Z,89.22
2018-12-05T10:29:53.381Z,88.99
2018-12-05T10:32:20.906Z,88.92
2018-12-05T10:34:48.368Z,89.11
2018-12-05T10:37:15.815Z,89.61
2018-12-05T10:39:43.273Z,89.14
2018-12-05T10:42:10.718Z,88.92
2018-12-05T10:44:38.273Z,89.27
2018-12-05T10:47:05.745Z,88.96
2018-12-05T10:49:33.180Z,88.77
2018-12-05T10:52:00.652Z,88.90
2018-12-05T10:54:28.234Z,88.47
2018-12-05T10:56:55.694Z,88.73
2018-12-05T10:59:23.259Z,88.79
2018-12-05T11:01:56.281Z,88.58
2018-12-05T11:11:00.038Z,88.24
2018-12-05T11:13:33.242Z,88.24
2018-12-05T11:16:03.433Z,88.01
2018-12-05T11:21:49.733Z,88.13
2018-12-05T11:24:18.057Z,87.75
2018-12-05T11:26:45.552Z,87.69
2018-12-05T11:29:13.082Z,87.78
2018-12-05T11:31:40.513Z,87.51
2018-12-05T11:34:08.011Z,87.02
2018-12-05T11:36:35.564Z,86.70
2018-12-05T11:39:03.834Z,86.39
2018-12-05T11:41:32.720Z,86.14
2018-12-05T11:44:00.335Z,86.41
2018-12-05T11:46:27.750Z,86.62
2018-12-05T11:48:55.212Z,86.70
2018-12-05T11:51:22.657Z,86.66
2018-12-05T11:53:50.083Z,86.22
2018-12-05T11:56:17.570Z,85.96
2018-12-05T11:58:45.030Z,85.91
2018-12-05T12:01:12.482Z,86.06
2018-12-05T12:03:39.917Z,85.99
2018-12-05T12:06:07.574Z,85.66
2018-12-05T12:08:35.017Z,85.35
2018-12-05T12:11:04.381Z,85.85
2018-12-05T12:13:31.839Z,85.80
2018-12-05T12:15:59.274Z,85.93
2018-12-05T12:18:26.732Z,85.47
2018-12-05T12:20:54.194Z,85.49
2018-12-05T12:23:21.646Z,85.18
2018-12-05T12:25:49.116Z,85.40
2018-12-05T12:28:16.572Z,84.94
2018-12-05T12:30:44.006Z,83.97
2018-12-05T12:33:11.451Z,84.34
2018-12-05T12:35:38.868Z,84.05
2018-12-05T12:38:06.295Z,84.57
2018-12-05T12:40:33.706Z,84.65
2018-12-05T12:43:01.148Z,84.40
2018-12-05T12:45:28.621Z,84.27
2018-12-05T12:47:56.064Z,83.80
2018-12-05T12:50:23.584Z,83.84
2018-12-05T12:52:50.997Z,83.68
2018-12-05T12:55:18.489Z,83.07
2018-12-05T12:57:45.952Z,83.76
2018-12-05T13:00:13.411Z,83.98
2018-12-05T13:02:40.823Z,83.03
2018-12-05T13:05:08.235Z,82.54
2018-12-05T13:07:35.734Z,83.22
2018-12-05T13:10:03.764Z,82.62
2018-12-05T13:12:33.146Z,82.52
2018-12-05T13:15:00.598Z,83.14
2018-12-05T13:17:28.052Z,82.59
2018-12-05T13:19:55.510Z,82.15
2018-12-05T13:22:23.067Z,82.42
2018-12-05T13:24:50.501Z,81.73
2018-12-05T13:27:17.983Z,81.70
2018-12-05T13:29:45.419Z,81.87
2018-12-05T13:32:12.928Z,82.16
2018-12-05T13:34:40.371Z,82.36
2018-12-05T13:37:07.834Z,83.08
2018-12-05T13:39:35.270Z,82.90
2018-12-05T13:42:02.753Z,82.67
2018-12-05T13:44:30.192Z,82.36
2018-12-05T13:46:57.665Z,82.77
2018-12-05T13:49:25.114Z,82.36
2018-12-05T13:51:52.608Z,82.25
2018-12-05T13:54:20.129Z,81.83
2018-12-05T13:56:47.587Z,82.39
2018-12-05T13:59:15.016Z,81.92
2018-12-05T14:01:42.501Z,81.97
2018-12-05T14:04:10.059Z,81.90
2018-12-05T14:06:37.536Z,82.15
2018-12-05T14:09:05.980Z,82.28
2018-12-05T14:11:33.456Z,82.27
2018-12-05T14:14:01.024Z,82.57
2018-12-05T14:16:28.572Z,82.11
2018-12-05T14:18:55.993Z,82.45
2018-12-05T14:21:23.494Z,82.71
2018-12-05T14:23:50.930Z,83.47
2018-12-05T14:26:18.411Z,83.00
2018-12-05T14:28:45.828Z,82.68
2018-12-05T14:31:13.322Z,83.02
2018-12-05T14:33:40.744Z,83.34
2018-12-05T14:36:08.312Z,83.90
2018-12-05T14:38:35.800Z,83.29
2018-12-05T14:41:03.346Z,83.72
2018-12-05T14:43:30.891Z,84.03
2018-12-05T14:45:58.358Z,84.54
2018-12-05T14:48:25.826Z,84.26
2018-12-05T14:50:53.250Z,84.31
2018-12-05T14:53:20.758Z,84.98
2018-12-05T14:55:48.296Z,84.52
2018-12-05T14:58:15.710Z,83.99
2018-12-05T15:00:43.220Z,84.56
2018-12-05T15:03:10.642Z,84.42
2018-12-05T15:05:38.060Z,84.35
2018-12-05T15:08:05.599Z,84.63
2018-12-05T15:10:33.473Z,84.86
2018-12-05T15:13:00.998Z,85.17
2018-12-05T15:15:29.170Z,84.43
2018-12-05T15:17:56.644Z,84.88
2018-12-05T15:20:24.105Z,84.83
2018-12-05T15:22:51.636Z,85.29
2018-12-05T15:25:19.108Z,85.08
2018-12-05T15:27:46.561Z,85.15
2018-12-05T15:30:14.098Z,84.73
2018-12-05T15:32:41.520Z,84.79
2018-12-05T15:35:09.005Z,84.80
2018-12-05T15:37:36.441Z,85.26
2018-12-05T15:40:04.554Z,84.60
2018-12-05T15:42:31.981Z,84.51
2018-12-05T15:44:59.427Z,85.21
2018-12-05T15:47:26.940Z,84.66
2018-12-05T15:49:54.375Z,85.09
2018-12-05T15:52:21.846Z,85.12
2018-12-05T15:54:49.341Z,84.54
2018-12-05T15:57:16.780Z,84.53
2018-12-05T15:59:44.276Z,84.55
2018-12-05T16:02:11.784Z,84.66
2018-12-05T16:04:39.230Z,84.98
2018-12-05T16:07:06.667Z,84.25
2018-12-05T16:09:34.091Z,84.25
2018-12-05T16:12:01.595Z,84.41
2018-12-05T16:14:29.008Z,83.98
2018-12-05T16:16:56.443Z,84.19
2018-12-05T16:19:23.879Z,84.47
2018-12-05T16:21:51.336Z,83.98
2018-12-05T16:24:18.769Z,84.38
2018-12-05T16:26:46.247Z,84.22
2018-12-05T16:29:13.681Z,83.91
2018-12-05T16:31:41.267Z,83.87
2018-12-05T16:34:08.728Z,83.51
2018-12-05T16:36:36.166Z,83.50
2018-12-05T16:39:06.376Z,83.91
2018-12-05T16:41:33.816Z,84.11
2018-12-05T16:44:01.243Z,83.95
2018-12-05T16:46:28.758Z,83.68
2018-12-05T16:48:56.240Z,83.28
2018-12-05T16:51:23.688Z,83.62
2018-12-05T16:53:51.108Z,83.37
2018-12-05T16:56:18.603Z,83.42
2018-12-05T16:58:46.074Z,83.84
2018-12-05T17:01:13.503Z,83.22
2018-12-05T17:03:40.959Z,83.58
2018-12-05T17:06:08.401Z,83.90
2018-12-05T17:08:35.878Z,84.25
2018-12-05T17:11:03.334Z,84.82
2018-12-05T17:13:30.800Z,84.41
2018-12-05T17:15:58.257Z,84.75
2018-12-05T17:18:25.753Z,84.54
2018-12-05T17:20:53.272Z,84.81
2018-12-05T17:23:20.736Z,84.65
2018-12-05T17:25:48.150Z,85.31
2018-12-05T17:28:15.633Z,86.31
2018-12-05T17:30:43.100Z,86.07
2018-12-05T17:33:10.568Z,85.63
2018-12-05T17:35:38.005Z,85.23
2018-12-05T17:38:05.481Z,85.59
2018-12-05T17:40:32.905Z,86.13
2018-12-05T17:43:00.394Z,86.43
2018-12-05T17:45:28.440Z,85.89
2018-12-05T17:47:57.325Z,86.25
2018-12-05T17:50:24.797Z,86.03
2018-12-05T17:52:52.237Z,86.55
2018-12-05T17:55:19.647Z,86.55
2018-12-05T17:57:47.102Z,86.74
2018-12-05T18:00:14.598Z,86.88
2018-12-05T18:02:42.073Z,86.72
2018-12-05T18:05:09.539Z,86.75
2018-12-05T18:07:36.989Z,87.88
2018-12-05T18:10:05.285Z,88.24
2018-12-05T18:12:32.706Z,87.82
2018-12-05T18:15:00.153Z,87.88
2018-12-05T18:17:27.660Z,87.92
2018-12-05T18:19:55.091Z,88.19
2018-12-05T18:22:22.657Z,87.95
2018-12-05T18:24:50.115Z,88.68
2018-12-05T18:27:17.535Z,88.09
2018-12-05T18:29:45.143Z,88.45
2018-12-05T18:32:12.586Z,88.34
2018-12-05T18:34:40.153Z,88.25
2018-12-05T18:37:07.641Z,88.48
2018-12-05T18:39:35.083Z,87.67
2018-12-05T18:42:02.640Z,88.06
2018-12-05T18:44:30.064Z,88.25
2018-12-05T18:46:57.552Z,87.76
2018-12-05T18:49:24.993Z,87.44
2018-12-05T18:51:52.469Z,87.52
2018-12-05T18:54:19.904Z,87.03
2018-12-05T18:56:47.315Z,87.34
2018-12-05T18:59:14.848Z,87.00
2018-12-05T19:01:42.275Z,87.67
2018-12-05T19:04:09.705Z,87.45
2018-12-05T19:06:37.197Z,87.00
2018-12-05T19:09:07.032Z,87.70
2018-12-05T19:11:34.675Z,86.98
2018-12-05T19:14:07.897Z,87.29
2018-12-05T19:16:35.430Z,86.99
2018-12-05T19:19:02.841Z,87.74
2018-12-05T19:21:30.340Z,87.67
2018-12-05T19:23:57.804Z,87.56
2018-12-05T19:26:25.271Z,87.64
2018-12-05T19:28:52.709Z,86.58
2018-12-05T19:31:20.189Z,86.39
2018-12-05T19:33:47.635Z,86.60
2018-12-05T19:36:15.191Z,87.17
2018-12-05T19:38:42.616Z,86.64
2018-12-05T19:41:10.077Z,86.33
2018-12-05T19:43:37.537Z,87.17
2018-12-05T19:46:05.029Z,86.22
2018-12-05T19:48:32.442Z,86.09
2018-12-05T19:50:59.872Z,86.11
2018-12-05T19:53:27.311Z,86.20
2018-12-05T19:55:54.830Z,86.59
2018-12-05T19:58:22.398Z,86.41
2018-12-05T20:00:49.877Z,86.46
2018-12-05T20:03:17.312Z,86.19
2018-12-05T20:05:44.763Z,85.88
2018-12-05T20:08:12.193Z,85.46
2018-12-05T20:10:39.631Z,85.19
2018-12-05T20:13:07.039Z,85.44
2018-12-05T20:15:34.498Z,85.49
2018-12-05T20:18:01.955Z,85.73
2018-12-05T20:20:29.498Z,85.42
2018-12-05T20:22:56.944Z,85.85
2018-12-05T20:25:24.436Z,86.29
2018-12-05T20:27:51.895Z,85.66
2018-12-05T20:30:19.323Z,85.48
2018-12-05T20:32:46.758Z,85.56
2018-12-05T20:35:14.258Z,85.08
2018-12-05T20:37:41.715Z,85.12
2018-12-05T20:40:09.199Z,85.57
2018-12-05T20:42:36.613Z,85.74
2018-12-05T20:45:05.250Z,85.75
2018-12-05T20:47:32.773Z,86.07
2018-12-05T20:50:00.244Z,86.43
2018-12-05T20:52:27.667Z,86.27
2018-12-05T20:54:55.141Z,86.69
2018-12-05T20:57:22.584Z,86.72
2018-12-05T20:59:50.060Z,86.31
2018-12-05T21:02:17.478Z,86.05
2018-12-05T21:04:44.956Z,86.36
2018-12-05T21:07:12.422Z,85.83
2018-12-05T21:09:39.871Z,85.42
2018-12-05T21:12:07.285Z,85.19
2018-12-05T21:14:34.715Z,85.39
2018-12-05T21:17:02.122Z,85.21
2018-12-05T21:19:29.593Z,85.12
2018-12-05T21:21:57.068Z,85.09
2018-12-05T21:24:24.537Z,84.89
2018-12-05T21:26:51.966Z,85.28
2018-12-05T21:29:19.425Z,85.09
2018-12-05T21:31:46.865Z,84.35
2018-12-05T21:34:14.352Z,84.87
2018-12-05T21:36:41.802Z,84.41
2018-12-05T21:39:09.327Z,84.31
2018-12-05T21:41:36.829Z,84.32
2018-12-05T21:44:04.261Z,84.37
2018-12-05T21:46:31.739Z,84.42
2018-12-05T21:48:59.161Z,84.40
2018-12-05T21:51:26.565Z,84.59
2018-12-05T21:53:53.991Z,84.90
2018-12-05T21:56:21.456Z,84.85
2018-12-05T21:58:49.019Z,84.83
2018-12-05T22:01:16.463Z,84.60
2018-12-05T22:03:43.921Z,84.46
2018-12-05T22:06:11.410Z,84.72
2018-12-05T22:08:38.835Z,84.25
2018-12-05T22:11:06.264Z,85.03
2018-12-05T22:13:33.776Z,84.88
2018-12-05T22:16:01.226Z,84.83
2018-12-05T22:18:28.676Z,84.76
2018-12-05T22:20:56.091Z,84.72
2018-12-05T22:23:23.554Z,84.76
2018-12-05T22:25:50.964Z,84.32
2018-12-05T22:28:18.602Z,84.85
2018-12-05T22:30:46.025Z,84.73
2018-12-05T22:33:13.511Z,85.28
2018-12-05T22:35:40.943Z,84.75
2018-12-05T22:38:08.367Z,84.81
2018-12-05T22:40:35.897Z,85.10
2018-12-05T22:43:03.332Z,84.85
2018-12-05T22:45:30.794Z,84.02
2018-12-05T22:47:58.277Z,84.24
2018-12-05T22:50:25.696Z,84.51
2018-12-05T22:52:53.170Z,83.85
2018-12-05T22:55:20.682Z,83.78
2018-12-05T22:57:48.233Z,83.86
2018-12-05T23:00:18.357Z,83.91
2018-12-05T23:02:45.886Z,83.81
2018-12-05T23:05:13.331Z,83.83
2018-12-05T23:07:40.749Z,84.22
2018-12-05T23:10:08.201Z,83.90
2018-12-05T23:12:35.697Z,84.25
2018-12-05T23:15:03.376Z,84.23
2018-12-05T23:17:30.827Z,84.14
2018-12-05T23:19:58.242Z,84.09
2018-12-05T23:22:25.680Z,84.03
2018-12-05T23:24:53.096Z,84.42
2018-12-05T23:27:20.530Z,84.05
2018-12-05T23:29:47.997Z,83.92
2018-12-05T23:32:15.446Z,83.59
2018-12-05T23:34:42.898Z,83.79
2018-12-05T23:37:10.311Z,84.14
2018-12-05T23:39:37.828Z,83.92
2018-12-05T23:42:05.242Z,83.93
2018-12-05T23:44:32.661Z,83.90
2018-12-05T23:47:00.112Z,83.68
2018-12-05T23:49:27.537Z,83.86
2018-12-05T23:51:54.976Z,84.35
2018-12-05T23:54:22.389Z,84.38
2018-12-05T23:56:49.834Z,83.82
2018-12-05T23:59:17.263Z,84.56
